Time;durP1;ratioP1;P1;durP2;ratioP2;P2;SDS_P1;SDS_P2;PMS_P1;PMS_P2;Temp;Humidity;BMP_temperature;BMP_pressure;BME280_temperature;BME280_humidity;BME280_pressure;Samples;Min_cycle;Max_cycle;Signal;HPM_P1;HPM_P2
2021/09/02 00:02:08;;;;;;;21.47;19.80;;;12.60;99.90;;;;;;4896879;29;20474;-69
2021/09/02 00:04:36;;;;;;;24.13;21.90;;;12.60;99.90;;;;;;4896200;29;20474;-68
2021/09/02 00:07:04;;;;;;;21.43;19.70;;;12.60;99.90;;;;;;4896341;29;20478;-69
2021/09/02 00:09:30;;;;;;;23.57;21.07;;;12.60;99.90;;;;;;4896329;29;20463;-69
2021/09/02 00:11:58;;;;;;;21.83;20.13;;;12.60;99.90;;;;;;4896018;29;20467;-69
2021/09/02 00:14:25;;;;;;;25.27;23.07;;;12.50;99.90;;;;;;4896299;29;20944;-69
2021/09/02 00:16:52;;;;;;;26.33;24.13;;;12.40;99.90;;;;;;4896092;29;20451;-69
2021/09/02 00:19:18;;;;;;;27.03;24.73;;;12.30;99.90;;;;;;4896240;29;20465;-69
2021/09/02 00:21:47;;;;;;;26.47;24.37;;;12.10;99.90;;;;;;4896073;29;20451;-70
2021/09/02 00:24:14;;;;;;;24.37;22.47;;;12.10;99.90;;;;;;4896236;29;20459;-69
2021/09/02 00:26:42;;;;;;;26.07;23.97;;;12.00;99.90;;;;;;4896271;29;20495;-69
2021/09/02 00:29:09;;;;;;;26.80;24.80;;;11.90;99.90;;;;;;4896102;29;20471;-69
2021/09/02 00:31:36;;;;;;;27.93;25.80;;;11.80;99.90;;;;;;4896074;29;20451;-70
2021/09/02 00:34:03;;;;;;;26.80;24.70;;;11.80;99.90;;;;;;4896063;29;20871;-69
2021/09/02 00:36:30;;;;;;;27.70;24.90;;;11.80;99.90;;;;;;4895967;29;20447;-69
2021/09/02 00:38:58;;;;;;;27.10;24.93;;;11.80;99.90;;;;;;4896052;29;20969;-69
2021/09/02 00:41:25;;;;;;;26.00;24.00;;;11.80;99.90;;;;;;4896230;29;20461;-69
2021/09/02 00:43:51;;;;;;;29.57;27.10;;;11.70;99.90;;;;;;4895781;29;20455;-69
2021/09/02 00:46:19;;;;;;;29.17;26.77;;;11.70;99.90;;;;;;4895852;29;20869;-69
2021/09/02 00:48:46;;;;;;;28.73;26.17;;;11.60;99.90;;;;;;4895585;29;20479;-69
2021/09/02 00:51:15;;;;;;;26.90;24.70;;;11.60;99.90;;;;;;4895763;29;20541;-69
2021/09/02 00:53:45;;;;;;;31.83;29.23;;;11.60;99.90;;;;;;4895976;29;20466;-69
2021/09/02 00:56:13;;;;;;;27.90;25.33;;;11.40;99.90;;;;;;4896002;29;20470;-69
2021/09/02 00:58:40;;;;;;;28.43;25.93;;;11.40;99.90;;;;;;4895830;29;20461;-69
2021/09/02 01:01:07;;;;;;;28.87;25.73;;;11.40;99.90;;;;;;4895721;29;20462;-69
2021/09/02 01:03:36;;;;;;;27.87;25.77;;;11.30;99.90;;;;;;4895515;29;20510;-70
2021/09/02 01:06:03;;;;;;;31.80;29.10;;;11.30;99.90;;;;;;4895611;29;20529;-69
2021/09/02 01:08:30;;;;;;;29.60;27.30;;;11.20;99.90;;;;;;4895646;29;20465;-69
2021/09/02 01:10:57;;;;;;;29.33;27.03;;;11.20;99.90;;;;;;4895801;29;20470;-70
2021/09/02 01:13:25;;;;;;;32.70;29.87;;;11.20;99.90;;;;;;4895794;29;20815;-69
2021/09/02 01:15:53;;;;;;;30.30;27.70;;;11.20;99.90;;;;;;4895466;29;20447;-70
2021/09/02 01:18:20;;;;;;;30.13;27.63;;;11.30;99.90;;;;;;4895698;29;20989;-69
2021/09/02 01:20:46;;;;;;;31.13;28.60;;;11.30;99.90;;;;;;4895519;29;20940;-69
2021/09/02 01:23:19;;;;;;;32.63;29.53;;;11.30;99.90;;;;;;4895548;29;20980;-69
2021/09/02 01:25:46;;;;;;;29.47;26.87;;;11.20;99.90;;;;;;4898331;29;20483;-69
2021/09/02 01:28:13;;;;;;;30.43;27.77;;;11.10;99.90;;;;;;4899239;29;20946;-69
2021/09/02 01:30:42;;;;;;;32.20;29.13;;;11.10;99.90;;;;;;4899318;29;20463;-69
2021/09/02 01:33:10;;;;;;;30.70;28.10;;;11.20;99.90;;;;;;4899071;29;20462;-69
2021/09/02 01:35:37;;;;;;;30.80;27.90;;;11.10;99.90;;;;;;4899221;29;20819;-69
2021/09/02 01:38:06;;;;;;;30.03;27.47;;;11.20;99.90;;;;;;4899017;29;20447;-69
2021/09/02 01:40:36;;;;;;;30.97;27.97;;;11.20;99.90;;;;;;4898998;29;20466;-69
2021/09/02 01:43:05;;;;;;;32.30;29.30;;;11.30;99.90;;;;;;4898738;29;20451;-69
2021/09/02 01:45:32;;;;;;;32.40;29.70;;;11.30;99.90;;;;;;4898816;29;20496;-70
2021/09/02 01:48:00;;;;;;;31.93;29.23;;;11.40;99.90;;;;;;4898719;29;20502;-70
2021/09/02 01:50:29;;;;;;;30.97;28.43;;;11.50;99.90;;;;;;4899044;29;20961;-69
2021/09/02 01:52:58;;;;;;;31.00;28.50;;;11.30;99.90;;;;;;4898763;29;20492;-69
2021/09/02 01:55:27;;;;;;;31.37;28.67;;;11.20;99.90;;;;;;4898977;29;20469;-69
2021/09/02 01:57:55;;;;;;;31.57;29.03;;;11.10;99.90;;;;;;4898802;29;20459;-69
2021/09/02 02:00:23;;;;;;;33.77;30.80;;;11.00;99.90;;;;;;4898488;29;20462;-70
2021/09/02 02:02:50;;;;;;;34.77;31.57;;;10.90;99.90;;;;;;4898608;29;20451;-70
2021/09/02 02:05:18;;;;;;;33.23;30.27;;;11.00;99.90;;;;;;4898498;29;20453;-71
2021/09/02 02:07:45;;;;;;;31.43;28.83;;;11.10;99.90;;;;;;4898325;29;20474;-71
2021/09/02 02:10:14;;;;;;;34.13;31.23;;;11.10;99.90;;;;;;4898602;29;20470;-71
2021/09/02 02:12:41;;;;;;;32.97;29.97;;;11.20;99.90;;;;;;4898443;29;20465;-71
2021/09/02 02:15:11;;;;;;;31.20;28.70;;;11.10;99.90;;;;;;4898041;29;20465;-71
2021/09/02 02:17:37;;;;;;;32.57;29.50;;;11.00;99.90;;;;;;4898397;29;20466;-70
2021/09/02 02:20:05;;;;;;;31.33;29.03;;;11.10;99.90;;;;;;4898207;29;20470;-71
2021/09/02 02:22:32;;;;;;;32.53;30.03;;;11.10;99.90;;;;;;4898155;29;20466;-71
2021/09/02 02:24:59;;;;;;;31.37;28.47;;;11.00;99.90;;;;;;4898236;29;20443;-70
2021/09/02 02:27:25;;;;;;;31.33;28.67;;;10.90;99.90;;;;;;4898160;29;20502;-72
2021/09/02 02:29:52;;;;;;;31.10;28.27;;;10.90;99.90;;;;;;4898163;29;20455;-71
2021/09/02 02:32:20;;;;;;;30.77;28.23;;;10.90;99.90;;;;;;4897951;29;20466;-70
2021/09/02 02:34:47;;;;;;;32.90;29.90;;;11.00;99.90;;;;;;4897783;29;20459;-70
2021/09/02 02:37:14;;;;;;;32.70;30.07;;;11.10;99.90;;;;;;4897810;29;20455;-71
2021/09/02 02:39:40;;;;;;;32.20;29.73;;;11.10;99.90;;;;;;4898310;29;20912;-70
2021/09/02 02:42:08;;;;;;;30.00;27.50;;;11.10;99.90;;;;;;4897847;29;20455;-71
2021/09/02 02:44:36;;;;;;;31.47;28.87;;;11.10;99.90;;;;;;4898043;29;20471;-71
2021/09/02 02:47:03;;;;;;;29.83;27.43;;;11.00;99.90;;;;;;4897474;29;20509;-69
2021/09/02 02:49:32;;;;;;;31.33;28.53;;;10.90;99.90;;;;;;4897764;29;20458;-70
2021/09/02 02:51:59;;;;;;;31.37;28.70;;;11.00;99.90;;;;;;4897921;29;20467;-70
2021/09/02 02:54:25;;;;;;;30.90;28.40;;;11.00;99.90;;;;;;4897660;29;21018;-70
2021/09/02 02:56:52;;;;;;;34.37;31.87;;;10.80;99.90;;;;;;4897697;29;20451;-70
2021/09/02 02:59:19;;;;;;;32.13;29.60;;;10.90;99.90;;;;;;4897853;29;20475;-70
2021/09/02 03:01:45;;;;;;;34.77;31.87;;;11.00;99.90;;;;;;4897522;29;20452;-70
2021/09/02 03:04:12;;;;;;;32.87;30.27;;;11.00;99.90;;;;;;4897856;29;20455;-70
2021/09/02 03:06:40;;;;;;;33.33;30.73;;;10.90;99.90;;;;;;4897378;29;20511;-71
2021/09/02 03:09:07;;;;;;;34.67;31.90;;;10.90;99.90;;;;;;4897468;29;20458;-71
2021/09/02 03:11:35;;;;;;;36.23;33.37;;;10.90;99.90;;;;;;4897638;29;20456;-71
2021/09/02 03:14:02;;;;;;;34.67;31.87;;;10.90;99.90;;;;;;4897109;29;20455;-71
2021/09/02 03:16:29;;;;;;;31.37;28.80;;;10.90;99.90;;;;;;4897574;29;20873;-71
2021/09/02 03:18:55;;;;;;;30.83;28.53;;;10.90;99.90;;;;;;4897512;29;20462;-71
2021/09/02 03:21:22;;;;;;;31.93;29.23;;;10.90;99.90;;;;;;4897177;29;20459;-71
2021/09/02 03:23:50;;;;;;;32.70;30.20;;;10.90;99.90;;;;;;4897239;29;20466;-70
2021/09/02 03:26:17;;;;;;;31.17;28.80;;;10.80;99.90;;;;;;4897072;29;20506;-72
2021/09/02 03:28:44;;;;;;;32.63;30.17;;;10.80;99.90;;;;;;4897344;29;20461;-72
2021/09/02 03:31:11;;;;;;;35.13;32.43;;;10.80;99.90;;;;;;4897340;29;20467;-71
2021/09/02 03:33:37;;;;;;;36.67;33.70;;;10.90;99.90;;;;;;4897258;29;20855;-70
2021/09/02 03:36:05;;;;;;;37.37;34.37;;;10.70;99.90;;;;;;4897200;29;20458;-71
2021/09/02 03:38:32;;;;;;;37.63;34.53;;;10.70;99.90;;;;;;4897131;29;20475;-73
2021/09/02 03:41:00;;;;;;;39.50;36.07;;;10.80;99.90;;;;;;4896912;29;20486;-72
2021/09/02 03:43:27;;;;;;;39.47;36.20;;;10.70;99.90;;;;;;4897158;29;20968;-71
2021/09/02 03:45:54;;;;;;;37.87;34.67;;;10.60;99.90;;;;;;4896767;29;20474;-71
2021/09/02 03:48:21;;;;;;;39.87;36.80;;;10.60;99.90;;;;;;4895911;29;20846;-70
2021/09/02 03:50:48;;;;;;;38.70;35.50;;;10.60;99.90;;;;;;4897033;29;20802;-70
2021/09/02 03:53:15;;;;;;;38.03;35.03;;;10.70;99.90;;;;;;4896691;29;20491;-70
2021/09/02 03:55:42;;;;;;;40.77;36.47;;;10.80;99.90;;;;;;4896894;29;20942;-69
2021/09/02 03:58:10;;;;;;;38.40;35.20;;;10.80;99.90;;;;;;4896743;29;20449;-69
2021/09/02 04:00:36;;;;;;;36.90;33.80;;;10.80;99.90;;;;;;4896539;29;20455;-69
2021/09/02 04:03:03;;;;;;;36.67;33.60;;;10.80;99.90;;;;;;4896305;29;20455;-70
2021/09/02 04:05:30;;;;;;;38.20;34.87;;;10.80;99.90;;;;;;4896573;29;20455;-70
2021/09/02 04:07:57;;;;;;;38.23;34.53;;;10.90;99.90;;;;;;4896610;29;20851;-70
2021/09/02 04:10:23;;;;;;;37.03;34.33;;;10.80;99.90;;;;;;4896547;29;20455;-70
2021/09/02 04:12:50;;;;;;;36.77;33.77;;;10.90;99.90;;;;;;4896368;29;20956;-70
2021/09/02 04:15:18;;;;;;;35.67;32.63;;;10.80;99.90;;;;;;4896367;29;20457;-70
2021/09/02 04:17:45;;;;;;;34.03;31.30;;;10.80;99.90;;;;;;4896478;29;20451;-71
2021/09/02 04:20:13;;;;;;;40.23;37.13;;;10.80;99.90;;;;;;4896434;29;20452;-71
2021/09/02 04:22:40;;;;;;;36.13;33.00;;;10.70;99.90;;;;;;4896154;29;20470;-71
2021/09/02 04:25:07;;;;;;;38.63;35.63;;;10.70;99.90;;;;;;4896121;29;20463;-70
2021/09/02 04:27:34;;;;;;;38.93;35.90;;;10.60;99.90;;;;;;4896064;29;20501;-70
2021/09/02 04:30:01;;;;;;;40.70;37.47;;;10.70;99.90;;;;;;4896187;29;20466;-70
2021/09/02 04:32:29;;;;;;;40.37;37.30;;;10.60;99.90;;;;;;4896312;29;20969;-70
2021/09/02 04:34:56;;;;;;;40.03;36.10;;;10.60;99.90;;;;;;4896236;29;20554;-69
2021/09/02 04:37:22;;;;;;;36.87;33.97;;;10.60;99.90;;;;;;4896099;29;20445;-70
2021/09/02 04:39:49;;;;;;;38.30;34.60;;;10.60;99.90;;;;;;4895949;29;20837;-70
2021/09/02 04:42:16;;;;;;;37.90;34.40;;;10.70;99.90;;;;;;4896237;29;20465;-70
2021/09/02 04:44:42;;;;;;;40.20;36.60;;;10.70;99.90;;;;;;4896139;29;20459;-70
2021/09/02 04:47:09;;;;;;;39.03;35.87;;;10.60;99.90;;;;;;4895834;29;20521;-70
2021/09/02 04:49:37;;;;;;;38.87;35.30;;;10.60;99.90;;;;;;4896047;29;20467;-71
2021/09/02 04:52:05;;;;;;;39.90;36.40;;;10.70;99.90;;;;;;4895792;29;20833;-73
2021/09/02 04:54:31;;;;;;;37.83;34.63;;;10.70;99.90;;;;;;4896073;29;20462;-71
2021/09/02 04:56:58;;;;;;;39.03;35.37;;;10.70;99.90;;;;;;4896022;29;20459;-71
2021/09/02 04:59:25;;;;;;;38.97;35.67;;;10.80;99.90;;;;;;4898299;29;20462;-70
2021/09/02 05:01:51;;;;;;;40.87;37.03;;;10.80;99.90;;;;;;4900241;29;20462;-70
2021/09/02 05:04:18;;;;;;;39.93;36.53;;;10.80;99.90;;;;;;4899791;29;20976;-72
2021/09/02 05:06:46;;;;;;;36.87;33.80;;;10.80;99.90;;;;;;4899707;29;20487;-71
2021/09/02 05:09:13;;;;;;;36.80;33.60;;;10.90;99.90;;;;;;4899920;29;20451;-71
2021/09/02 05:11:40;;;;;;;37.10;34.10;;;10.90;99.90;;;;;;4899966;29;20481;-71
2021/09/02 05:14:06;;;;;;;39.80;36.80;;;10.90;99.90;;;;;;4899533;29;20447;-71
2021/09/02 05:16:33;;;;;;;37.63;34.63;;;10.90;99.90;;;;;;4899586;29;20457;-72
2021/09/02 05:19:00;;;;;;;40.87;36.73;;;10.90;99.90;;;;;;4899720;29;20447;-72
2021/09/02 05:21:26;;;;;;;37.30;34.13;;;10.90;99.90;;;;;;4899648;29;20468;-73
2021/09/02 05:23:54;;;;;;;40.97;37.13;;;10.90;99.90;;;;;;4899452;29;20452;-72
2021/09/02 05:26:21;;;;;;;38.37;34.60;;;10.90;99.90;;;;;;4899670;29;20944;-72
2021/09/02 05:28:48;;;;;;;40.00;36.60;;;10.90;99.90;;;;;;4899434;29;20466;-72
2021/09/02 05:31:15;;;;;;;34.93;32.13;;;11.00;99.90;;;;;;4899179;29;20775;-71
2021/09/02 05:33:41;;;;;;;36.67;33.63;;;11.00;99.90;;;;;;4899653;29;20451;-72
2021/09/02 05:36:08;;;;;;;40.13;37.00;;;11.10;99.90;;;;;;4899139;29;20452;-72
2021/09/02 05:38:35;;;;;;;43.53;40.00;;;11.20;99.90;;;;;;4899248;29;20451;-72
2021/09/02 05:41:03;;;;;;;44.13;39.43;;;11.50;99.90;;;;;;4899392;29;20789;-72
2021/09/02 05:43:30;;;;;;;45.67;40.87;;;12.00;99.90;;;;;;4899231;29;20874;-73
2021/09/02 05:45:56;;;;;;;41.97;38.00;;;12.20;99.90;;;;;;4899044;29;20467;-72
2021/09/02 05:48:23;;;;;;;36.80;33.23;;;12.50;99.90;;;;;;4898811;29;20501;-72
2021/09/02 05:50:52;;;;;;;34.60;31.67;;;12.60;99.90;;;;;;4898864;29;20954;-71
2021/09/02 05:53:18;;;;;;;30.30;27.77;;;12.80;99.90;;;;;;4899006;29;20455;-72
2021/09/02 05:55:45;;;;;;;31.60;29.00;;;13.10;99.90;;;;;;4898764;29;20451;-73
2021/09/02 05:58:13;;;;;;;29.57;27.07;;;13.40;99.90;;;;;;4899190;29;20450;-71
2021/09/02 06:00:40;;;;;;;29.27;26.53;;;13.60;99.90;;;;;;4898993;29;20960;-72
2021/09/02 06:03:07;;;;;;;29.00;26.80;;;13.80;99.90;;;;;;4898757;29;20459;-71
2021/09/02 06:05:34;;;;;;;28.60;25.80;;;14.00;99.90;;;;;;4898712;29;20973;-70
2021/09/02 06:08:00;;;;;;;28.87;26.10;;;14.10;99.90;;;;;;4898373;29;20494;-71
2021/09/02 06:10:27;;;;;;;28.27;25.60;;;14.40;99.90;;;;;;4897951;29;20566;-72
2021/09/02 06:12:56;;;;;;;28.20;25.73;;;14.80;99.90;;;;;;4898747;29;20816;-71
2021/09/02 06:15:25;;;;;;;28.83;26.77;;;15.00;99.90;;;;;;4898724;29;20523;-72
2021/09/02 06:17:51;;;;;;;26.03;24.03;;;15.30;99.90;;;;;;4898425;29;20452;-71
2021/09/02 06:20:18;;;;;;;25.13;23.30;;;15.60;99.90;;;;;;4898694;29;20460;-71
2021/09/02 06:22:45;;;;;;;26.97;24.37;;;16.00;99.90;;;;;;4898510;29;20542;-70
2021/09/02 06:25:12;;;;;;;25.97;23.97;;;16.20;99.90;;;;;;4898777;29;20455;-70
2021/09/02 06:27:39;;;;;;;26.73;24.20;;;16.50;99.90;;;;;;4898312;29;20501;-70
2021/09/02 06:30:08;;;;;;;22.50;21.10;;;17.00;99.90;;;;;;4897999;29;21029;-70
2021/09/02 06:32:36;;;;;;;21.50;19.77;;;17.50;99.90;;;;;;4897862;29;20459;-69
2021/09/02 06:35:03;;;;;;;23.07;21.20;;;17.80;99.90;;;;;;4897929;29;21246;-70
2021/09/02 06:37:30;;;;;;;22.57;20.97;;;18.20;99.90;;;;;;4897749;29;20451;-71
2021/09/02 06:39:57;;;;;;;21.40;20.00;;;18.70;99.90;;;;;;4898161;29;20451;-72
2021/09/02 06:42:24;;;;;;;24.07;21.50;;;18.90;99.90;;;;;;4898072;29;20463;-72
2021/09/02 06:44:51;;;;;;;22.23;20.73;;;19.20;99.90;;;;;;4897867;29;20467;-72
2021/09/02 06:47:17;;;;;;;21.80;20.10;;;19.50;99.90;;;;;;4897734;29;20582;-71
2021/09/02 06:49:45;;;;;;;22.47;20.40;;;19.70;99.90;;;;;;4898027;29;20458;-71
2021/09/02 06:52:12;;;;;;;21.57;20.00;;;20.00;99.90;;;;;;4897942;29;20970;-71
2021/09/02 06:54:39;;;;;;;20.80;19.60;;;20.30;99.90;;;;;;4897702;29;20459;-71
2021/09/02 06:57:06;;;;;;;20.47;19.27;;;20.60;99.90;;;;;;4897969;29;20462;-70
2021/09/02 06:59:32;;;;;;;22.07;20.30;;;21.10;99.90;;;;;;4897633;29;20459;-70
2021/09/02 07:01:59;;;;;;;20.17;18.87;;;21.10;99.90;;;;;;4898007;29;20451;-71
2021/09/02 07:04:26;;;;;;;20.30;18.90;;;21.70;99.90;;;;;;4897609;29;20964;-70
2021/09/02 07:06:54;;;;;;;19.80;18.60;;;21.70;99.70;;;;;;4897551;29;20459;-71
2021/09/02 07:09:21;;;;;;;20.33;19.13;;;22.20;99.10;;;;;;4897487;29;20463;-71
2021/09/02 07:11:47;;;;;;;20.93;19.53;;;22.70;98.20;;;;;;4897615;29;20451;-71
2021/09/02 07:14:14;;;;;;;20.27;18.93;;;22.70;97.50;;;;;;4897548;29;20455;-71
2021/09/02 07:16:41;;;;;;;21.57;20.17;;;22.90;97.40;;;;;;4897507;29;20455;-72
2021/09/02 07:19:08;;;;;;;22.23;20.63;;;23.60;96.30;;;;;;4897409;29;20451;-71
2021/09/02 07:21:34;;;;;;;23.10;21.10;;;23.90;95.60;;;;;;4897342;29;20989;-72
2021/09/02 07:24:03;;;;;;;20.97;19.13;;;24.40;94.60;;;;;;4897345;29;20459;-71
2021/09/02 07:26:29;;;;;;;21.77;20.50;;;23.80;94.50;;;;;;4897448;29;20451;-72
2021/09/02 07:28:56;;;;;;;21.53;20.00;;;23.30;95.60;;;;;;4897315;29;21025;-72
2021/09/02 07:31:23;;;;;;;20.73;19.33;;;22.60;97.20;;;;;;4897431;29;20824;-70
2021/09/02 07:33:50;;;;;;;21.47;20.17;;;23.30;96.70;;;;;;4896823;29;20459;-71
2021/09/02 07:36:16;;;;;;;21.50;19.73;;;23.80;95.40;;;;;;4896942;29;20452;-71
2021/09/02 07:38:43;;;;;;;21.73;19.77;;;23.90;94.80;;;;;;4897150;29;20455;-70
2021/09/02 07:41:11;;;;;;;22.40;20.77;;;24.30;94.30;;;;;;4897063;29;20851;-71
2021/09/02 07:43:38;;;;;;;22.63;20.90;;;24.70;93.60;;;;;;4896733;29;20459;-71
2021/09/02 07:46:04;;;;;;;22.17;20.77;;;25.30;92.90;;;;;;4896708;29;20479;-71
2021/09/02 07:48:31;;;;;;;23.43;21.80;;;25.60;92.50;;;;;;4896548;29;20506;-70
2021/09/02 07:50:58;;;;;;;24.07;22.30;;;25.10;92.30;;;;;;4896702;29;20466;-71
2021/09/02 07:53:24;;;;;;;21.33;19.80;;;25.20;91.90;;;;;;4896711;29;20451;-71
2021/09/02 07:55:51;;;;;;;22.03;20.60;;;25.20;92.60;;;;;;4897794;29;20459;-72
2021/09/02 07:58:19;;;;;;;23.70;22.00;;;25.10;93.00;;;;;;4913406;29;20811;-73
2021/09/02 08:00:47;;;;;;;21.90;20.27;;;25.50;91.70;;;;;;4915364;29;20450;-72
2021/09/02 08:03:14;;;;;;;22.50;20.70;;;25.40;92.00;;;;;;4915228;29;20453;-73
2021/09/02 08:05:41;;;;;;;23.10;21.60;;;26.10;90.90;;;;;;4915188;29;20787;-73
2021/09/02 08:08:08;;;;;;;21.77;20.37;;;26.50;89.00;;;;;;4914795;29;20494;-73
2021/09/02 08:10:35;;;;;;;21.60;20.20;;;26.50;90.10;;;;;;4913493;29;20458;-73
2021/09/02 08:13:02;;;;;;;21.40;20.00;;;26.40;90.00;;;;;;4915374;29;20462;-73
2021/09/02 08:15:30;;;;;;;22.07;20.67;;;26.60;89.00;;;;;;4915339;29;20949;-73
2021/09/02 08:17:58;;;;;;;23.27;21.40;;;26.90;88.60;;;;;;4915505;29;20549;-73
2021/09/02 08:20:25;;;;;;;22.53;21.03;;;27.40;87.30;;;;;;4915300;29;20458;-73
2021/09/02 08:22:52;;;;;;;22.13;20.73;;;28.00;85.20;;;;;;4915141;29;20979;-73
2021/09/02 08:25:19;;;;;;;22.20;20.80;;;27.90;84.00;;;;;;4915181;29;20853;-73
2021/09/02 08:27:46;;;;;;;19.97;18.73;;;27.20;85.80;;;;;;4915020;29;20490;-75
2021/09/02 08:30:14;;;;;;;22.20;20.50;;;27.60;86.10;;;;;;4915311;29;20459;-75
2021/09/02 08:32:47;;;;;;;21.60;20.10;;;28.00;83.10;;;;;;4915219;29;20829;-74
2021/09/02 08:35:14;;;;;;;20.33;19.13;;;27.40;84.30;;;;;;4914983;29;20963;-74
2021/09/02 08:37:41;;;;;;;20.80;19.50;;;26.10;89.00;;;;;;4915097;29;20450;-74
2021/09/02 08:40:09;;;;;;;20.70;19.60;;;27.20;86.10;;;;;;4915146;29;20451;-75
2021/09/02 08:42:36;;;;;;;21.07;19.77;;;27.90;83.60;;;;;;4915182;29;20458;-77
2021/09/02 08:45:03;;;;;;;22.60;21.20;;;28.60;82.60;;;;;;4915135;29;20455;-74
2021/09/02 08:47:30;;;;;;;21.77;20.50;;;29.40;79.10;;;;;;4914893;29;20485;-74
2021/09/02 08:49:58;;;;;;;19.70;18.40;;;29.30;78.50;;;;;;4915281;29;20454;-75
2021/09/02 08:52:29;;;;;;;21.10;19.90;;;29.40;78.30;;;;;;4913181;29;20461;-74
2021/09/02 08:54:57;;;;;;;21.40;20.10;;;29.80;78.20;;;;;;4912053;29;20469;-73
2021/09/02 08:57:23;;;;;;;21.03;19.57;;;29.70;76.70;;;;;;4914910;29;20455;-74
2021/09/02 08:59:50;;;;;;;21.73;20.43;;;30.00;77.30;;;;;;4914941;29;20470;-74
2021/09/02 09:02:22;;;;;;;22.43;20.90;;;29.50;77.20;;;;;;4914988;29;20462;-74
2021/09/02 09:05:01;;;;;;;23.00;21.60;;;29.70;78.30;;;;;;4914748;29;20844;-74
2021/09/02 09:07:29;;;;;;;23.30;21.90;;;30.40;76.40;;;;;;4915025;29;20557;-75
2021/09/02 09:09:56;;;;;;;21.87;20.47;;;30.40;75.60;;;;;;4915070;29;20462;-75
2021/09/02 09:12:33;;;;;;;22.63;21.33;;;30.50;75.90;;;;;;4914462;29;20458;-72
2021/09/02 09:15:08;;;;;;;21.27;20.00;;;30.80;74.10;;;;;;4913141;29;20469;-72
2021/09/02 09:17:36;;;;;;;22.03;20.67;;;30.80;73.00;;;;;;4913311;29;20450;-74
2021/09/02 09:20:07;;;;;;;21.37;20.17;;;30.60;74.00;;;;;;4912544;29;20465;-73
2021/09/02 09:22:34;;;;;;;22.60;21.10;;;30.60;74.30;;;;;;4914480;29;20462;-73
2021/09/02 09:25:04;;;;;;;21.27;19.87;;;30.30;74.40;;;;;;4914279;29;20482;-72
2021/09/02 09:27:37;;;;;;;19.70;18.60;;;30.40;74.70;;;;;;4914365;29;20576;-73
2021/09/02 09:30:13;;;;;;;19.90;18.80;;;30.70;73.00;;;;;;4914288;29;21222;-72
2021/09/02 09:32:42;;;;;;;18.53;17.37;;;30.20;75.10;;;;;;4914642;29;20532;-72
2021/09/02 09:35:13;;;;;;;19.37;18.10;;;31.50;70.50;;;;;;4914188;29;20450;-73
2021/09/02 09:37:40;;;;;;;19.40;18.43;;;31.20;70.30;;;;;;4914444;29;21016;-73
2021/09/02 09:40:12;;;;;;;17.53;16.63;;;31.50;71.30;;;;;;4914301;29;21025;-73
2021/09/02 09:42:39;;;;;;;20.27;19.17;;;32.10;67.80;;;;;;4914351;29;20968;-72
2021/09/02 09:45:11;;;;;;;20.20;19.07;;;32.80;66.20;;;;;;4914438;29;20462;-72
2021/09/02 09:47:38;;;;;;;20.53;19.43;;;33.50;63.80;;;;;;4917554;29;20522;-73
2021/09/02 09:50:09;;;;;;;19.90;18.87;;;33.70;63.10;;;;;;4917760;29;20454;-73
2021/09/02 09:52:41;;;;;;;20.43;19.43;;;33.60;62.30;;;;;;4917773;29;20462;-72
2021/09/02 09:55:10;;;;;;;20.67;19.50;;;33.70;61.40;;;;;;4917848;29;20836;-73
2021/09/02 09:57:38;;;;;;;20.73;19.63;;;33.70;60.90;;;;;;4917674;29;20465;-73
2021/09/02 10:00:07;;;;;;;20.43;19.43;;;33.00;61.10;;;;;;4917657;29;20454;-72
2021/09/02 10:02:35;;;;;;;19.77;18.77;;;32.70;61.60;;;;;;4917526;29;20450;-72
2021/09/02 10:05:04;;;;;;;19.67;18.67;;;32.40;59.30;;;;;;4917131;29;20466;-72
2021/09/02 10:07:33;;;;;;;18.33;17.23;;;30.90;59.50;;;;;;4917216;29;20464;-72
2021/09/02 10:10:01;;;;;;;18.23;17.33;;;29.20;62.50;;;;;;4916960;29;20494;-72
2021/09/02 10:12:34;;;;;;;19.00;18.00;;;28.70;65.50;;;;;;4917331;29;20957;-72
2021/09/02 10:15:03;;;;;;;19.33;18.43;;;29.30;65.00;;;;;;4916820;29;20490;-73
2021/09/02 10:17:33;;;;;;;18.93;17.93;;;28.90;68.10;;;;;;4917136;29;20465;-74
2021/09/02 10:20:00;;;;;;;19.03;18.10;;;28.80;69.50;;;;;;4917046;29;20820;-74
2021/09/02 10:22:28;;;;;;;18.07;17.17;;;29.20;68.50;;;;;;4917021;29;20473;-74
2021/09/02 10:24:55;;;;;;;19.50;18.60;;;28.80;67.20;;;;;;4916839;29;20971;-74
2021/09/02 10:27:37;;;;;;;18.07;17.17;;;28.90;67.30;;;;;;4916974;29;20458;-73
2021/09/02 10:30:24;;;;;;;18.03;16.97;;;29.00;67.40;;;;;;4916718;29;20623;-73
2021/09/02 10:32:52;;;;;;;18.73;17.63;;;28.90;69.40;;;;;;4917007;29;20502;-74
2021/09/02 10:35:33;;;;;;;18.37;17.30;;;28.40;71.10;;;;;;4916752;29;20462;-73
2021/09/02 10:38:00;;;;;;;18.70;17.80;;;28.90;69.60;;;;;;4917012;29;20450;-74
2021/09/02 10:40:50;;;;;;;17.93;17.10;;;28.40;69.70;;;;;;4916960;29;20863;-72
2021/09/02 10:43:47;;;;;;;18.37;17.47;;;28.20;71.40;;;;;;4916649;29;20952;-73
2021/09/02 10:46:28;;;;;;;18.73;17.83;;;28.40;70.20;;;;;;4916709;29;20481;-72
2021/09/02 10:48:54;;;;;;;18.83;17.83;;;28.40;71.80;;;;;;4916611;29;20509;-73
2021/09/02 10:51:40;;;;;;;18.57;17.67;;;28.70;69.60;;;;;;4916411;29;20458;-72
2021/09/02 10:54:08;;;;;;;17.17;16.37;;;28.20;70.50;;;;;;4916451;29;20455;-72
2021/09/02 10:56:52;;;;;;;18.47;17.57;;;27.70;71.10;;;;;;4916249;29;20455;-71
2021/09/02 10:59:36;;;;;;;18.10;17.20;;;28.00;70.60;;;;;;4916641;29;20454;-72
2021/09/02 11:02:03;;;;;;;19.13;18.23;;;28.40;69.00;;;;;;4916519;29;20712;-73
2021/09/02 11:04:30;;;;;;;18.13;17.23;;;28.30;67.70;;;;;;4916282;29;20462;-73
2021/09/02 11:06:56;;;;;;;17.37;16.57;;;28.40;67.10;;;;;;4916362;29;20527;-73
2021/09/02 11:09:31;;;;;;;18.63;17.70;;;28.80;66.60;;;;;;4916167;29;20501;-72
2021/09/02 11:11:58;;;;;;;15.73;15.03;;;28.60;66.80;;;;;;4916465;29;20458;-72
2021/09/02 11:14:25;;;;;;;17.20;16.40;;;28.50;66.50;;;;;;4916247;29;20477;-72
2021/09/02 11:16:53;;;;;;;16.37;15.57;;;28.80;64.10;;;;;;4916335;29;20461;-72
2021/09/02 11:19:34;;;;;;;17.97;16.97;;;28.40;65.10;;;;;;4916082;29;20463;-72
2021/09/02 11:22:07;;;;;;;16.97;16.17;;;27.70;66.70;;;;;;4915975;29;20461;-72
2021/09/02 11:24:39;;;;;;;17.63;16.63;;;27.70;67.00;;;;;;4916084;29;20858;-72
2021/09/02 11:27:06;;;;;;;17.00;16.20;;;28.50;65.10;;;;;;4916019;29;20825;-73
2021/09/02 11:29:33;;;;;;;16.73;15.93;;;29.40;63.70;;;;;;4915767;29;20490;-72
2021/09/02 11:32:02;;;;;;;17.40;16.40;;;28.70;61.00;;;;;;4916022;29;20465;-71
2021/09/02 11:34:30;;;;;;;17.10;16.20;;;28.40;63.20;;;;;;4915871;29;20462;-72
2021/09/02 11:36:56;;;;;;;17.47;16.60;;;28.70;62.30;;;;;;4915808;29;20458;-72
2021/09/02 11:39:28;;;;;;;17.87;16.87;;;28.50;61.80;;;;;;4915683;29;20458;-73
2021/09/02 11:42:03;;;;;;;18.33;17.30;;;28.50;62.30;;;;;;4915886;29;20458;-73
2021/09/02 11:44:32;;;;;;;16.03;15.27;;;27.90;63.90;;;;;;4915635;29;20464;-72
2021/09/02 11:47:03;;;;;;;17.23;16.43;;;28.10;64.30;;;;;;4915316;29;20535;-72
2021/09/02 11:49:30;;;;;;;17.47;16.67;;;28.00;64.60;;;;;;4915230;29;21027;-72
2021/09/02 11:51:58;;;;;;;16.90;16.20;;;27.80;64.80;;;;;;4915577;29;20832;-72
2021/09/02 11:54:26;;;;;;;16.60;15.90;;;28.30;62.70;;;;;;4915429;29;20980;-72
2021/09/02 11:56:53;;;;;;;15.97;15.33;;;28.50;62.30;;;;;;4915387;29;20835;-71
2021/09/02 11:59:21;;;;;;;16.93;16.13;;;29.00;61.90;;;;;;4915170;29;20941;-72
2021/09/02 12:01:49;;;;;;;17.90;17.00;;;28.90;61.70;;;;;;4915022;29;20454;-71
2021/09/02 12:04:19;;;;;;;17.23;16.43;;;28.00;63.10;;;;;;4914953;29;20470;-71
2021/09/02 12:06:47;;;;;;;17.60;16.70;;;28.50;62.80;;;;;;4914840;29;20470;-72
2021/09/02 12:09:16;;;;;;;17.23;16.33;;;29.20;61.40;;;;;;4913992;29;20494;-71
2021/09/02 12:11:43;;;;;;;17.20;16.30;;;28.80;61.30;;;;;;4914781;29;20503;-71
2021/09/02 12:14:14;;;;;;;17.77;16.97;;;28.90;63.20;;;;;;4915164;29;20831;-71
2021/09/02 12:16:41;;;;;;;17.33;16.53;;;29.40;63.20;;;;;;4914895;29;20458;-71
2021/09/02 12:19:08;;;;;;;15.97;15.27;;;29.90;59.00;;;;;;4914782;29;20454;-72
2021/09/02 12:21:36;;;;;;;18.33;17.43;;;29.70;59.10;;;;;;4914692;29;20473;-73
2021/09/02 12:24:07;;;;;;;16.87;16.10;;;29.60;60.50;;;;;;4914816;29;20455;-73
2021/09/02 12:26:46;;;;;;;16.93;16.03;;;29.30;59.00;;;;;;4914921;29;20960;-72
2021/09/02 12:29:15;;;;;;;17.67;16.77;;;29.40;62.00;;;;;;4914863;29;20505;-72
2021/09/02 12:31:42;;;;;;;17.13;16.10;;;29.20;62.20;;;;;;4915081;29;20469;-72
2021/09/02 12:34:11;;;;;;;16.70;15.80;;;29.60;59.40;;;;;;4914922;29;20462;-72